Time;durP1;ratioP1;P1;durP2;ratioP2;P2;SDS_P1;SDS_P2;PMS_P1;PMS_P2;Temp;Humidity;BMP_temperature;BMP_pressure;BME280_temperature;BME280_humidity;BME280_pressure;Samples;Min_cycle;Max_cycle;Signal;HPM_P1;HPM_P2
2023/07/08 00:00:47;;;;;;;3.47;3.47;;;;;;;-145.94;42.25;76035.72;5113595;28;20205;-66
2023/07/08 00:03:16;;;;;;;3.33;3.33;;;;;;;-145.94;42.21;76035.72;5113869;28;20181;-65
2023/07/08 00:05:43;;;;;;;4.17;4.07;;;;;;;-145.94;42.26;76039.81;5113493;28;20606;-65
2023/07/08 00:08:18;;;;;;;3.97;3.60;;;;;;;-145.94;42.44;76037.75;5130041;27;20193;-65
2023/07/08 00:10:46;;;;;;;3.83;3.73;;;;;;;-145.94;42.30;76033.69;5117101;28;20205;-65
2023/07/08 00:13:13;;;;;;;3.27;3.07;;;;;;;-145.94;42.62;76033.69;5116842;28;20182;-65
2023/07/08 00:15:40;;;;;;;3.20;3.20;;;;;;;-145.94;42.53;76033.69;5117394;28;20185;-65
2023/07/08 00:18:12;;;;;;;4.20;4.10;;;;;;;-145.94;42.25;76033.69;5116820;28;20238;-65
2023/07/08 00:20:43;;;;;;;4.37;3.97;;;;;;;-145.94;42.57;76031.66;5116861;28;20244;-65
2023/07/08 00:23:09;;;;;;;5.70;4.03;;;;;;;-145.94;42.68;76029.59;5116961;28;20204;-65
2023/07/08 00:25:36;;;;;;;3.30;3.20;;;;;;;-145.94;42.73;76031.66;5132618;27;20201;-65
2023/07/08 00:28:16;;;;;;;4.00;3.80;;;;;;;-145.94;42.50;76035.72;5116795;28;20520;-65
2023/07/08 00:30:43;;;;;;;5.40;3.70;;;;;;;-145.94;42.66;76027.56;5116556;28;20213;-65
2023/07/08 00:33:10;;;;;;;3.80;3.57;;;;;;;-145.94;42.66;76031.66;5116415;28;20189;-65
2023/07/08 00:35:38;;;;;;;4.30;4.27;;;;;;;-145.94;42.66;76031.66;5116622;28;20614;-65
2023/07/08 00:38:29;;;;;;;6.47;4.23;;;;;;;-145.94;42.87;76027.56;5116326;28;20189;-65
2023/07/08 00:40:58;;;;;;;3.30;3.30;;;;;;;-145.94;42.68;76029.59;5116458;27;20204;-65
2023/07/08 00:43:40;;;;;;;3.80;3.73;;;;;;;-145.94;42.75;76027.56;5114968;28;20288;-65
2023/07/08 00:47:02;;;;;;;4.33;4.03;;;;;;;-145.94;42.46;76027.56;5114976;28;20200;-65
2023/07/08 00:49:41;;;;;;;4.43;4.23;;;;;;;-145.94;42.85;76023.50;5053737;28;20188;-65
2023/07/08 00:52:19;;;;;;;3.80;3.50;;;;;;;-145.94;42.75;76021.44;5053474;28;20207;-65
2023/07/08 00:54:49;;;;;;;5.40;3.60;;;;;;;-145.94;42.67;76031.66;5101320;28;20192;-65
2023/07/08 00:57:16;;;;;;;3.60;3.60;;;;;;;-145.94;42.77;76029.59;5116524;28;20196;-65
2023/07/08 00:59:53;;;;;;;4.33;4.23;;;;;;;-145.94;42.63;76029.59;5115946;28;20234;-65
2023/07/08 01:02:22;;;;;;;4.17;3.87;;;;;;;-145.94;42.73;76025.53;5116055;28;20608;-65
2023/07/08 01:04:57;;;;;;;4.43;4.10;;;;;;;-145.94;42.97;76029.59;5114552;28;20193;-65
2023/07/08 01:07:25;;;;;;;3.77;3.67;;;;;;;-145.94;42.96;76031.66;5131719;27;20238;-65
2023/07/08 01:09:58;;;;;;;3.77;3.77;;;;;;;-145.94;42.89;76027.56;5115710;28;20551;-65
2023/07/08 01:12:29;;;;;;;3.70;3.70;;;;;;;-145.94;43.08;76029.59;5115646;28;20201;-65
2023/07/08 01:14:56;;;;;;;6.20;4.13;;;;;;;-145.94;42.73;76023.50;5115968;28;20619;-65
2023/07/08 01:17:23;;;;;;;4.33;4.23;;;;;;;-145.94;42.86;76017.38;5114313;28;20242;-65
2023/07/08 01:19:51;;;;;;;5.47;4.93;;;;;;;-145.94;43.00;76033.69;5114756;28;20212;-65
2023/07/08 01:22:18;;;;;;;4.27;4.07;;;;;;;-145.94;43.08;76035.72;5115868;28;20224;-65
2023/07/08 01:24:46;;;;;;;3.87;3.87;;;;;;;-145.94;42.91;76031.66;5131300;27;20195;-65
2023/07/08 01:27:16;;;;;;;8.90;4.40;;;;;;;-145.94;42.74;76025.53;5115314;28;20185;-65
2023/07/08 01:29:42;;;;;;;6.20;4.63;;;;;;;-145.94;43.17;76035.72;5115413;28;20239;-65
2023/07/08 01:32:13;;;;;;;3.97;3.97;;;;;;;-145.94;42.95;76025.53;5115472;28;20266;-65
2023/07/08 01:34:40;;;;;;;4.40;4.23;;;;;;;-145.94;43.23;76023.50;5115538;28;20161;-65
2023/07/08 01:37:11;;;;;;;4.70;4.37;;;;;;;-145.94;43.25;76031.66;5115418;28;20186;-65
2023/07/08 01:39:38;;;;;;;4.90;4.77;;;;;;;-145.94;43.40;76023.50;5113877;28;20185;-65
2023/07/08 01:42:04;;;;;;;4.30;4.10;;;;;;;-145.94;43.46;76035.72;5114980;28;20212;-65
2023/07/08 01:44:35;;;;;;;4.63;4.53;;;;;;;-145.94;43.23;76029.59;5114590;28;20277;-65
2023/07/08 01:47:16;;;;;;;4.83;4.73;;;;;;;-145.94;43.38;76035.72;5130909;27;20272;-65
2023/07/08 01:49:46;;;;;;;6.20;4.20;;;;;;;-145.94;43.45;76033.69;5115501;28;20226;-65
2023/07/08 01:52:15;;;;;;;3.83;3.83;;;;;;;-145.94;43.75;76041.84;5113572;28;20213;-65
2023/07/08 01:54:42;;;;;;;4.13;3.83;;;;;;;-145.94;43.75;76037.75;5114828;28;20180;-65
2023/07/08 01:57:08;;;;;;;4.40;4.30;;;;;;;-145.94;43.81;76052.03;5113567;28;20193;-65
2023/07/08 01:59:35;;;;;;;4.23;4.23;;;;;;;-145.94;43.85;76045.91;5113474;28;20193;-65
2023/07/08 02:02:01;;;;;;;7.03;3.53;;;;;;;-145.94;44.00;76047.97;5113288;28;20262;-65
2023/07/08 02:04:30;;;;;;;4.60;4.50;;;;;;;-145.94;44.13;76047.97;5114627;28;20185;-65
2023/07/08 02:06:59;;;;;;;3.73;3.73;;;;;;;-145.94;44.22;76050.00;5130430;27;20227;-65
2023/07/08 02:09:27;;;;;;;3.73;3.57;;;;;;;-145.94;44.31;76045.91;5113285;28;20663;-65
2023/07/08 02:11:55;;;;;;;3.20;3.20;;;;;;;-145.94;44.41;76050.00;5114742;28;20213;-66
2023/07/08 02:14:22;;;;;;;4.03;4.03;;;;;;;-145.94;44.31;76047.97;5114760;28;20607;-66
2023/07/08 02:16:48;;;;;;;3.90;3.87;;;;;;;-145.94;44.65;76060.19;5115033;28;20563;-65
2023/07/08 02:19:15;;;;;;;4.27;4.07;;;;;;;-145.94;44.73;76058.16;5113207;28;20193;-65
2023/07/08 02:21:41;;;;;;;3.97;3.97;;;;;;;-145.94;44.79;76060.19;5114144;28;20213;-65
2023/07/08 02:24:08;;;;;;;5.07;4.50;;;;;;;-145.94;45.10;76070.38;5113036;28;20222;-65
2023/07/08 02:26:34;;;;;;;6.00;4.40;;;;;;;-145.94;45.02;76076.50;5113006;28;20243;-65
2023/07/08 02:29:02;;;;;;;4.60;4.50;;;;;;;-145.94;45.22;76074.47;5114529;28;20185;-65
2023/07/08 02:31:29;;;;;;;4.27;4.20;;;;;;;-145.94;45.21;76080.56;5130206;27;20235;-65
2023/07/08 02:33:56;;;;;;;4.17;4.07;;;;;;;-145.94;45.57;76090.78;5114406;28;20173;-65
2023/07/08 02:36:23;;;;;;;4.50;4.47;;;;;;;-145.94;45.61;76086.69;5114047;28;20189;-65
2023/07/08 02:38:50;;;;;;;4.90;4.80;;;;;;;-145.94;45.72;76092.81;5114041;28;20177;-65
2023/07/08 02:41:17;;;;;;;4.73;4.33;;;;;;;-145.94;45.93;76100.97;5129775;27;20269;-65
2023/07/08 02:43:44;;;;;;;4.90;4.80;;;;;;;-145.94;45.92;76105.03;5114280;28;20242;-65
2023/07/08 02:46:10;;;;;;;5.33;5.13;;;;;;;-145.94;46.13;76109.13;5114228;28;20707;-65
2023/07/08 02:48:37;;;;;;;4.87;4.37;;;;;;;-145.94;46.15;76115.25;5114211;28;20185;-65
2023/07/08 02:51:05;;;;;;;4.70;4.60;;;;;;;-145.94;46.37;76113.19;5112545;28;20240;-65
2023/07/08 02:53:32;;;;;;;5.13;4.77;;;;;;;-145.94;46.28;76121.34;5112571;28;20192;-65
2023/07/08 02:55:58;;;;;;;4.67;4.03;;;;;;;-145.94;46.64;76127.47;5114159;28;20249;-65
2023/07/08 02:58:24;;;;;;;4.47;4.37;;;;;;;-145.94;46.52;76117.28;5114083;28;20716;-65
2023/07/08 03:00:56;;;;;;;4.53;4.43;;;;;;;-145.94;46.63;76123.41;5112666;28;20209;-65
2023/07/08 03:03:22;;;;;;;4.53;4.20;;;;;;;-145.94;46.73;76129.50;5113675;28;20255;-65
2023/07/08 03:06:01;;;;;;;4.67;4.57;;;;;;;-145.94;46.74;76133.59;5114291;28;20181;-65
2023/07/08 03:08:28;;;;;;;5.50;5.40;;;;;;;-145.94;46.63;76127.47;5114321;28;20195;-65
2023/07/08 03:10:59;;;;;;;4.77;4.63;;;;;;;-145.94;46.81;76131.56;5129465;28;20743;-65
2023/07/08 03:13:27;;;;;;;4.30;4.20;;;;;;;-145.94;46.70;76133.59;5112317;28;20177;-65
2023/07/08 03:15:55;;;;;;;5.80;4.83;;;;;;;-145.94;46.89;76129.50;5112116;28;20193;-65
2023/07/08 03:18:24;;;;;;;4.30;4.20;;;;;;;-145.94;47.06;76139.69;5129419;28;20204;-65
2023/07/08 03:20:53;;;;;;;4.73;3.73;;;;;;;-145.94;47.33;76153.97;5113129;28;20300;-65
2023/07/08 03:23:19;;;;;;;4.50;4.50;;;;;;;-145.94;47.27;76141.75;5129360;28;20213;-65
2023/07/08 03:25:47;;;;;;;4.93;4.63;;;;;;;-145.94;47.55;76143.78;5112303;28;20189;-65
2023/07/08 03:28:14;;;;;;;4.23;3.93;;;;;;;-145.94;47.44;76139.69;5112541;28;20192;-65
2023/07/08 03:30:43;;;;;;;4.97;4.77;;;;;;;-145.94;47.30;76137.66;5112137;28;20219;-66
2023/07/08 03:33:12;;;;;;;4.57;4.50;;;;;;;-145.94;47.15;76127.47;5129308;28;20652;-65
2023/07/08 03:35:40;;;;;;;4.40;4.30;;;;;;;-145.94;47.65;76137.66;5112179;28;20246;-65
2023/07/08 03:38:06;;;;;;;5.20;4.80;;;;;;;-145.94;47.65;76131.56;5112203;28;20555;-65
2023/07/08 03:40:33;;;;;;;10.50;5.37;;;;;;;-145.94;47.69;76143.78;5113864;28;20181;-65
2023/07/08 03:42:59;;;;;;;4.13;4.03;;;;;;;-145.94;47.48;76143.78;5114568;28;20235;-65
2023/07/08 03:45:28;;;;;;;5.80;5.27;;;;;;;-145.94;47.44;76143.78;5116078;28;20215;-65
2023/07/08 03:47:55;;;;;;;4.90;4.80;;;;;;;-145.94;47.36;76147.84;5116299;28;20189;-65
2023/07/08 03:50:25;;;;;;;5.03;4.67;;;;;;;-145.94;47.71;76158.06;5117188;28;20181;-66
2023/07/08 03:52:54;;;;;;;4.03;3.80;;;;;;;-145.94;47.71;76160.09;5115866;28;20196;-65
2023/07/08 03:55:24;;;;;;;4.97;4.40;;;;;;;-145.94;47.82;76162.13;5133366;27;20223;-65
2023/07/08 03:57:51;;;;;;;4.83;4.43;;;;;;;-145.94;47.57;76164.16;5116078;28;20181;-65
2023/07/08 04:00:17;;;;;;;4.43;4.43;;;;;;;-145.94;48.09;76178.44;5115740;28;20200;-65
2023/07/08 04:02:45;;;;;;;5.30;5.10;;;;;;;-145.94;48.07;76176.41;5116228;28;20204;-65
2023/07/08 04:05:20;;;;;;;4.80;4.80;;;;;;;-145.94;48.41;76188.63;5132920;27;20219;-65
2023/07/08 04:07:47;;;;;;;4.40;4.17;;;;;;;-145.94;48.48;76184.56;5117497;28;20231;-65
2023/07/08 04:10:14;;;;;;;4.80;4.33;;;;;;;-145.94;48.61;76188.63;5116906;28;20193;-65
2023/07/08 04:12:41;;;;;;;3.90;3.80;;;;;;;-145.94;48.47;76184.56;5116748;28;20201;-65
2023/07/08 04:15:08;;;;;;;4.40;4.20;;;;;;;-145.94;48.55;76194.75;5117049;28;20316;-65
2023/07/08 04:17:41;;;;;;;4.83;4.00;;;;;;;-145.94;48.63;76182.53;5116750;28;20648;-65
2023/07/08 04:20:10;;;;;;;4.50;4.43;;;;;;;-145.94;48.54;76182.53;5117001;28;20255;-65
2023/07/08 04:22:37;;;;;;;9.47;4.93;;;;;;;-145.94;48.74;76186.59;5116597;28;20205;-65
2023/07/08 04:25:04;;;;;;;3.80;3.60;;;;;;;-145.94;48.95;76188.63;5116861;28;20222;-65
2023/07/08 04:27:30;;;;;;;5.33;5.10;;;;;;;-145.94;49.12;76200.88;5116818;27;20643;-65
2023/07/08 04:29:57;;;;;;;5.20;5.00;;;;;;;-145.94;49.28;76196.78;5116669;28;20200;-65
2023/07/08 04:32:24;;;;;;;4.80;4.77;;;;;;;-145.94;49.20;76192.72;5116364;28;20201;-65
2023/07/08 04:34:52;;;;;;;4.90;4.70;;;;;;;-145.94;49.35;76196.78;5116706;28;20674;-65
2023/07/08 04:37:21;;;;;;;4.40;4.30;;;;;;;-145.94;49.06;76190.69;5116610;28;20193;-66
2023/07/08 04:39:48;;;;;;;5.00;4.90;;;;;;;-145.94;49.15;76186.59;5116344;28;20189;-66
2023/07/08 04:42:16;;;;;;;4.93;4.80;;;;;;;-145.94;49.10;76174.38;5116131;28;20666;-66
2023/07/08 04:44:44;;;;;;;5.03;4.90;;;;;;;-145.94;49.00;76170.28;5116270;28;20222;-66
2023/07/08 04:47:13;;;;;;;4.10;4.00;;;;;;;-145.94;49.06;76162.13;5116176;28;20670;-65
2023/07/08 04:49:41;;;;;;;5.77;5.23;;;;;;;-145.94;48.94;76160.09;5116148;28;20230;-65
2023/07/08 04:52:07;;;;;;;4.73;4.53;;;;;;;-145.94;49.07;76139.69;5116043;28;20201;-65
2023/07/08 04:54:34;;;;;;;4.40;4.20;;;;;;;-145.94;48.58;76141.75;5114815;28;20193;-65
2023/07/08 04:57:00;;;;;;;5.43;4.97;;;;;;;-145.94;48.19;76131.56;5116223;28;20231;-65
2023/07/08 04:59:27;;;;;;;4.17;4.17;;;;;;;-145.94;48.37;76125.44;5116259;28;20211;-65
2023/07/08 05:01:53;;;;;;;5.20;4.93;;;;;;;-145.94;48.57;76131.56;5115866;28;20216;-65
2023/07/08 05:04:22;;;;;;;4.43;4.10;;;;;;;-145.94;48.36;76119.31;5116120;28;20182;-65
2023/07/08 05:06:49;;;;;;;3.63;3.63;;;;;;;-145.94;48.28;76125.44;5116103;28;20551;-65
2023/07/08 05:09:16;;;;;;;3.93;3.93;;;;;;;-145.94;47.64;76119.31;5115746;28;20185;-65
2023/07/08 05:11:43;;;;;;;4.63;4.50;;;;;;;-145.94;48.01;76129.50;5115636;28;20692;-65
2023/07/08 05:14:12;;;;;;;5.47;5.13;;;;;;;-145.94;48.35;76129.50;5115638;28;20183;-65
2023/07/08 05:16:39;;;;;;;10.97;4.67;;;;;;;-145.94;48.24;76125.44;5115791;28;20189;-65
2023/07/08 05:19:06;;;;;;;4.77;4.37;;;;;;;-145.94;48.30;76131.56;5115572;28;20250;-65
2023/07/08 05:21:35;;;;;;;4.27;4.17;;;;;;;-145.94;48.35;76127.47;5115715;28;20201;-65
2023/07/08 05:24:03;;;;;;;4.60;4.40;;;;;;;-145.94;48.36;76125.44;5115385;28;20244;-65
2023/07/08 05:26:30;;;;;;;4.37;4.27;;;;;;;-145.94;48.30;76113.19;5115381;28;20233;-65
2023/07/08 05:28:57;;;;;;;5.00;4.50;;;;;;;-145.94;48.26;76096.88;5115511;28;20237;-65
2023/07/08 05:31:24;;;;;;;6.63;4.50;;;;;;;-145.94;48.33;76086.69;5115386;28;20209;-65
2023/07/08 05:34:07;;;;;;;4.13;4.03;;;;;;;-145.94;47.70;76074.47;5115595;28;20216;-65
2023/07/08 05:36:34;;;;;;;4.37;4.27;;;;;;;-145.94;47.64;76070.38;5115412;28;20670;-65
2023/07/08 05:39:01;;;;;;;4.20;4.17;;;;;;;-145.94;47.95;76064.25;5115711;28;20196;-65
2023/07/08 05:41:27;;;;;;;5.00;4.90;;;;;;;-145.94;48.06;76062.22;5115053;28;20209;-65
2023/07/08 05:43:54;;;;;;;7.80;4.73;;;;;;;-145.94;47.78;76058.16;5114994;28;20208;-65
2023/07/08 05:46:20;;;;;;;5.03;5.03;;;;;;;-145.94;47.99;76043.88;5115000;28;20246;-65
2023/07/08 05:48:48;;;;;;;4.77;4.57;;;;;;;-145.94;47.48;76037.75;5114894;28;20213;-65
2023/07/08 05:51:15;;;;;;;5.87;4.27;;;;;;;-145.94;47.38;76033.69;5115081;28;20573;-65
2023/07/08 05:53:41;;;;;;;6.20;4.53;;;;;;;-145.94;47.62;76029.59;5115386;28;20764;-65
2023/07/08 05:56:08;;;;;;;3.90;3.90;;;;;;;-145.94;47.37;76019.41;5115068;28;20189;-65
2023/07/08 05:58:34;;;;;;;3.90;3.77;;;;;;;-145.94;47.28;76011.25;5114739;27;20189;-65
2023/07/08 06:01:01;;;;;;;3.93;3.83;;;;;;;-145.94;47.69;75999.03;5115049;28;20241;-66
2023/07/08 06:03:28;;;;;;;4.07;3.77;;;;;;;-145.94;47.99;75984.75;5114572;28;20232;-65
2023/07/08 06:05:55;;;;;;;4.17;3.80;;;;;;;-145.94;47.73;75980.69;5114338;28;20224;-65
2023/07/08 06:08:21;;;;;;;9.73;3.33;;;;;;;-145.94;47.53;75968.44;5114602;28;20249;-65
2023/07/08 06:10:49;;;;;;;7.63;4.00;;;;;;;-145.94;47.10;75964.38;5114681;28;20213;-66
2023/07/08 06:13:16;;;;;;;18.70;4.30;;;;;;;-145.94;46.79;75946.03;5114750;28;20188;-65
2023/07/08 06:15:42;;;;;;;4.00;3.70;;;;;;;-145.94;46.54;75931.75;5114707;28;20193;-65
2023/07/08 06:18:09;;;;;;;4.80;4.47;;;;;;;-145.94;46.97;75915.44;5114661;28;20254;-65
2023/07/08 06:20:35;;;;;;;9.90;3.83;;;;;;;-145.94;46.65;75909.31;5114555;28;20186;-65
2023/07/08 06:23:02;;;;;;;6.80;4.23;;;;;;;-145.94;46.69;75890.97;5114426;28;20694;-65
2023/07/08 06:25:29;;;;;;;7.87;4.63;;;;;;;-145.94;46.21;75880.78;5114321;28;20189;-65
2023/07/08 06:27:55;;;;;;;3.73;3.63;;;;;;;-145.94;46.68;75862.44;5114570;28;20185;-65
2023/07/08 06:30:22;;;;;;;4.00;3.93;;;;;;;-145.94;46.12;75852.25;5114141;28;20562;-66
2023/07/08 06:32:48;;;;;;;4.53;4.20;;;;;;;-145.94;45.17;75844.09;5114170;28;20188;-65
2023/07/08 06:35:15;;;;;;;5.20;4.27;;;;;;;-145.94;44.81;75823.69;5114390;28;20549;-65
2023/07/08 06:37:41;;;;;;;4.43;4.23;;;;;;;-145.94;45.41;75797.19;5114650;28;20516;-65
2023/07/08 06:40:08;;;;;;;4.23;4.03;;;;;;;-145.94;44.85;75791.09;5114027;28;20197;-65
2023/07/08 06:42:35;;;;;;;3.70;3.70;;;;;;;-145.94;45.09;75772.72;5114080;28;20559;-66
2023/07/08 06:45:29;;;;;;;3.70;3.60;;;;;;;-145.94;45.52;75758.47;5113032;28;20262;-65
2023/07/08 06:47:55;;;;;;;3.77;3.73;;;;;;;-145.94;44.39;75752.34;5114227;28;20185;-65
2023/07/08 06:50:22;;;;;;;4.30;3.97;;;;;;;-145.94;44.22;75738.06;5114506;28;20181;-66
2023/07/08 06:52:48;;;;;;;3.63;3.47;;;;;;;-145.94;44.38;75727.88;5114062;28;20242;-65
2023/07/08 06:55:15;;;;;;;4.33;4.10;;;;;;;-145.94;44.15;75709.53;5114053;28;20538;-65
2023/07/08 06:57:41;;;;;;;6.90;3.63;;;;;;;-145.94;43.08;75693.22;5114090;28;20612;-65
2023/07/08 07:00:10;;;;;;;4.00;4.00;;;;;;;-145.94;42.78;75678.97;5113731;28;20177;-65
2023/07/08 07:02:36;;;;;;;4.00;4.00;;;;;;;-145.94;42.57;75670.81;5113606;28;20229;-66
2023/07/08 07:05:04;;;;;;;4.03;3.93;;;;;;;-145.94;42.53;75662.66;5113755;28;20181;-66
2023/07/08 07:07:31;;;;;;;4.03;3.93;;;;;;;-145.94;42.19;75652.44;5113659;28;20189;-65
2023/07/08 07:09:57;;;;;;;4.30;4.03;;;;;;;-145.94;42.02;75640.22;5113672;28;20604;-66
2023/07/08 07:12:24;;;;;;;3.30;3.30;;;;;;;-145.94;41.67;75630.03;5113870;28;20550;-65
2023/07/08 07:14:52;;;;;;;4.30;4.30;;;;;;;-145.94;41.92;75611.69;5113891;28;20256;-65
2023/07/08 07:17:21;;;;;;;3.22;3.22;;;;;;;-145.94;42.05;75597.41;5113576;28;20661;-65
2023/07/08 07:19:48;;;;;;;4.03;3.80;;;;;;;-145.94;42.73;75579.06;5118117;28;20207;-65
2023/07/08 07:22:15;;;;;;;4.13;4.13;;;;;;;-145.94;42.24;75570.91;5117406;28;20209;-66
2023/07/08 07:24:42;;;;;;;4.60;3.90;;;;;;;-145.94;42.42;75562.75;5117522;28;20258;-66
2023/07/08 07:27:09;;;;;;;3.72;3.58;;;;;;;-145.94;41.78;75548.50;5118274;28;20177;-65
2023/07/08 07:29:48;;;;;;;3.78;3.53;;;;;;;-145.94;41.88;75538.28;5117689;28;20185;-65
2023/07/08 07:32:16;;;;;;;4.03;3.85;;;;;;;-145.94;41.67;75530.13;5117697;28;20702;-66
2023/07/08 07:34:46;;;;;;;3.67;3.67;;;;;;;-145.94;41.87;75526.06;5118112;28;20186;-66
2023/07/08 07:37:15;;;;;;;3.70;3.70;;;;;;;-145.94;41.81;75524.03;5116639;28;20242;-66
2023/07/08 07:39:42;;;;;;;3.97;3.60;;;;;;;-145.94;41.95;75501.59;5118117;28;20185;-65
2023/07/08 07:42:09;;;;;;;4.25;4.25;;;;;;;-145.94;42.57;75491.41;5117373;28;20250;-66
2023/07/08 07:44:36;;;;;;;4.60;4.50;;;;;;;-145.94;41.31;75479.19;5117618;28;20570;-65
2023/07/08 07:47:03;;;;;;;4.05;3.85;;;;;;;-145.94;41.08;75473.06;5117347;28;20185;-65
2023/07/08 07:49:30;;;;;;;4.22;4.05;;;;;;;-145.94;40.29;75473.06;5117499;28;20185;-65
2023/07/08 07:51:57;;;;;;;3.55;3.45;;;;;;;-145.94;40.34;75454.72;5117349;28;20205;-66
2023/07/08 07:54:23;;;;;;;3.90;3.80;;;;;;;-145.94;41.30;75452.69;5117738;28;20181;-65
2023/07/08 07:56:50;;;;;;;3.70;3.60;;;;;;;-145.94;40.32;75442.47;5117169;28;20237;-65
2023/07/08 07:59:16;;;;;;;3.78;3.78;;;;;;;-145.94;40.11;75440.44;5117392;28;20705;-65
2023/07/08 08:01:42;;;;;;;3.97;3.42;;;;;;;-145.94;40.33;75432.28;5116924;28;20713;-66
2023/07/08 08:04:10;;;;;;;4.80;4.55;;;;;;;-145.94;40.44;75424.13;5116923;28;20287;-66
2023/07/08 08:06:37;;;;;;;4.38;4.00;;;;;;;-145.94;40.21;75407.84;5117238;28;20189;-65
2023/07/08 08:09:05;;;;;;;4.07;3.88;;;;;;;-145.94;38.46;75399.69;5116944;28;20241;-65
2023/07/08 08:11:32;;;;;;;4.55;4.22;;;;;;;-145.94;38.75;75383.38;5116893;28;20216;-66
2023/07/08 08:14:00;;;;;;;4.13;4.03;;;;;;;-145.94;37.75;75365.03;5117342;28;20181;-65
2023/07/08 08:16:27;;;;;;;5.18;4.60;;;;;;;-145.94;37.52;75358.91;5117314;28;20190;-65
2023/07/08 08:18:53;;;;;;;4.55;4.22;;;;;;;-145.94;37.98;75346.69;5116789;28;20610;-65
2023/07/08 08:21:21;;;;;;;3.70;3.60;;;;;;;-145.94;37.66;75334.44;5116612;28;20691;-66
2023/07/08 08:23:48;;;;;;;4.00;3.95;;;;;;;-145.94;38.22;75316.09;5117152;28;20203;-65
2023/07/08 08:26:14;;;;;;;5.25;4.90;;;;;;;-145.94;36.91;75305.91;5117180;28;20685;-65
2023/07/08 08:28:40;;;;;;;5.53;4.13;;;;;;;-145.94;37.34;75291.66;5116659;28;20581;-65
2023/07/08 08:31:07;;;;;;;5.68;4.90;;;;;;;-145.94;37.09;75269.22;5116660;28;20582;-66
2023/07/08 08:33:33;;;;;;;5.45;5.22;;;;;;;-145.94;37.08;75257.00;5116879;28;20650;-65
2023/07/08 08:36:00;;;;;;;4.95;4.70;;;;;;;-145.94;36.53;75246.78;5117219;28;20572;-65
2023/07/08 08:38:27;;;;;;;4.72;4.40;;;;;;;-145.94;36.74;75246.78;5116552;28;20193;-65
2023/07/08 08:40:53;;;;;;;10.63;4.00;;;;;;;-145.94;37.23;75230.50;5116142;28;20258;-66
2023/07/08 08:43:33;;;;;;;5.07;4.68;;;;;;;-145.94;37.21;75222.34;5116138;28;20208;-66
2023/07/08 08:46:26;;;;;;;5.75;4.90;;;;;;;-145.94;37.03;75216.22;5116470;28;20177;-66
2023/07/08 08:49:08;;;;;;;4.25;3.95;;;;;;;-145.94;36.65;75201.94;5116221;28;20710;-66
2023/07/08 08:51:35;;;;;;;4.57;4.32;;;;;;;-145.94;36.42;75189.72;5116342;28;20212;-66
2023/07/08 08:54:01;;;;;;;4.55;4.55;;;;;;;-145.94;36.06;75193.81;5116347;28;20196;-65
2023/07/08 08:56:36;;;;;;;4.30;4.30;;;;;;;-145.94;36.28;75179.53;5116000;27;20198;-66
2023/07/08 08:59:11;;;;;;;3.88;3.75;;;;;;;-145.94;37.48;75181.56;5116588;28;20172;-66
2023/07/08 09:01:38;;;;;;;8.02;3.90;;;;;;;-145.94;36.49;75169.34;5116377;28;20674;-65
2023/07/08 09:04:16;;;;;;;4.95;4.57;;;;;;;-145.94;36.56;75165.25;5116388;28;20667;-66
2023/07/08 09:06:44;;;;;;;4.50;4.40;;;;;;;-145.94;35.52;75146.91;5116125;28;20180;-66
2023/07/08 09:09:27;;;;;;;4.68;4.35;;;;;;;-145.94;36.17;75151.00;5115837;28;20165;-66
2023/07/08 09:12:02;;;;;;;4.13;4.13;;;;;;;-145.94;35.33;75157.09;5115899;28;20208;-65
2023/07/08 09:14:32;;;;;;;6.45;5.80;;;;;;;-145.94;35.83;75161.19;5116058;28;20173;-66
2023/07/08 09:17:22;;;;;;;4.72;4.43;;;;;;;-145.94;36.08;75132.66;5115612;28;20185;-65
2023/07/08 09:20:13;;;;;;;6.07;4.53;;;;;;;-145.94;35.53;75116.34;5115538;28;20173;-65
2023/07/08 09:23:07;;;;;;;5.13;4.72;;;;;;;-145.94;35.75;75098.00;5115490;28;20205;-66
2023/07/08 09:25:39;;;;;;;5.05;4.63;;;;;;;-145.94;35.16;75083.72;5115794;28;20169;-66
2023/07/08 09:28:07;;;;;;;5.32;4.65;;;;;;;-145.94;36.40;75069.47;5115588;28;20181;-66
2023/07/08 09:30:34;;;;;;;5.47;4.43;;;;;;;-145.94;35.81;75071.50;5115281;28;20204;-66
2023/07/08 09:33:07;;;;;;;4.70;4.60;;;;;;;-145.94;35.83;75063.34;5115345;28;20193;-65
2023/07/08 09:35:46;;;;;;;5.25;5.03;;;;;;;-145.94;34.09;75061.31;5115768;28;20209;-66
2023/07/08 09:38:20;;;;;;;4.72;4.53;;;;;;;-145.94;34.89;75057.22;5115502;28;20723;-66
2023/07/08 09:40:51;;;;;;;4.70;4.18;;;;;;;-145.94;35.68;75051.13;5114898;28;20219;-66
2023/07/08 09:43:26;;;;;;;10.27;5.00;;;;;;;-145.94;35.72;75026.66;5115628;28;20174;-66
2023/07/08 09:45:58;;;;;;;5.53;5.00;;;;;;;-145.94;35.63;75026.66;5115027;28;20179;-66
2023/07/08 09:48:27;;;;;;;8.57;4.80;;;;;;;-145.94;34.67;75006.28;5115055;28;20165;-66
2023/07/08 09:50:57;;;;;;;4.38;4.28;;;;;;;-145.94;33.79;75002.19;5114710;28;20209;-67
2023/07/08 09:53:24;;;;;;;11.07;4.55;;;;;;;-145.94;31.28;74981.81;5130981;27;20173;-67
2023/07/08 09:55:51;;;;;;;5.00;4.70;;;;;;;-145.94;31.66;74951.25;5114870;28;20204;-67
2023/07/08 09:58:24;;;;;;;5.25;4.50;;;;;;;-145.94;29.56;74930.88;5114786;28;20193;-67
2023/07/08 10:00:58;;;;;;;4.60;4.40;;;;;;;-145.94;29.04;74918.63;5115193;28;20699;-67
2023/07/08 10:03:32;;;;;;;6.97;3.78;;;;;;;-145.94;29.45;74914.56;5114929;28;20212;-67
2023/07/08 10:06:05;;;;;;;4.22;4.15;;;;;;;-145.94;29.71;74890.09;5114961;28;20204;-67
2023/07/08 10:08:42;;;;;;;4.72;4.57;;;;;;;-145.94;28.97;74871.75;5115381;28;20185;-66
2023/07/08 10:11:29;;;;;;;3.97;3.88;;;;;;;-145.94;29.92;74861.56;5114792;28;20208;-67
2023/07/08 10:14:01;;;;;;;3.97;3.88;;;;;;;-145.94;28.39;74843.22;5114527;28;20181;-67
2023/07/08 10:16:38;;;;;;;4.50;4.43;;;;;;;-145.94;28.56;74826.91;5114793;28;20173;-67
2023/07/08 10:19:15;;;;;;;4.13;3.85;;;;;;;-145.94;27.71;74820.81;5114437;28;20343;-67
2023/07/08 10:22:10;;;;;;;4.45;4.35;;;;;;;-145.94;28.13;74798.38;5114946;28;20212;-67
2023/07/08 10:24:55;;;;;;;4.40;4.07;;;;;;;-145.94;27.63;74786.16;5114552;28;20204;-67
2023/07/08 10:27:34;;;;;;;3.53;3.40;;;;;;;-145.94;27.87;74767.81;5114614;28;20184;-67
2023/07/08 10:30:06;;;;;;;6.43;4.50;;;;;;;-145.94;27.26;74761.69;5112855;28;20201;-67
2023/07/08 10:32:44;;;;;;;4.95;3.78;;;;;;;-145.94;27.65;74745.38;5113891;28;20757;-67
2023/07/08 10:35:21;;;;;;;4.30;4.10;;;;;;;-145.94;27.06;74745.38;5114447;28;20497;-67
2023/07/08 10:37:57;;;;;;;3.00;3.00;;;;;;;-145.94;27.45;74745.38;5114701;28;20565;-66
2023/07/08 10:40:33;;;;;;;8.55;3.35;;;;;;;-145.94;27.81;74747.44;5114261;28;20196;-67
2023/07/08 10:43:15;;;;;;;3.33;3.22;;;;;;;-145.94;27.22;74737.25;5114582;28;20185;-66
2023/07/08 10:46:00;;;;;;;3.35;3.35;;;;;;;-145.94;28.32;74743.34;5114502;28;20178;-66
2023/07/08 10:49:03;;;;;;;30.20;3.92;;;;;;;-145.94;27.30;74739.28;5114344;28;20170;-67
2023/07/08 10:51:35;;;;;;;3.63;3.42;;;;;;;-145.94;27.12;74745.38;5113973;28;20201;-67
2023/07/08 10:54:03;;;;;;;2.67;2.67;;;;;;;-145.94;27.43;74751.50;5113209;28;20169;-67
2023/07/08 10:56:36;;;;;;;5.93;3.67;;;;;;;-145.94;28.35;74747.44;5113897;27;20208;-67
2023/07/08 10:59:27;;;;;;;3.88;3.55;;;;;;;-145.94;27.25;74727.03;5113893;28;20174;-67
2023/07/08 11:02:02;;;;;;;7.45;3.47;;;;;;;-145.94;27.64;74718.91;5113926;28;20201;-67
2023/07/08 11:04:34;;;;;;;3.30;3.20;;;;;;;-145.94;27.86;74708.69;5114286;28;20571;-67
2023/07/08 11:07:30;;;;;;;3.38;3.05;;;;;;;-145.94;27.54;74702.59;5114015;28;20181;-67
2023/07/08 11:10:02;;;;;;;3.95;3.28;;;;;;;-145.94;26.75;74692.41;5114216;28;20256;-67
2023/07/08 11:12:45;;;;;;;2.67;2.63;;;;;;;-145.94;26.68;74698.50;5113691;28;20245;-67
2023/07/08 11:15:30;;;;;;;4.43;2.80;;;;;;;-145.94;27.24;74690.34;5113965;28;20620;-67
2023/07/08 11:18:22;;;;;;;3.08;2.63;;;;;;;-145.94;26.97;74672.03;5114201;28;20616;-67
2023/07/08 11:21:11;;;;;;;3.20;3.10;;;;;;;-145.94;26.42;74669.97;5113573;28;20204;-67
2023/07/08 11:23:47;;;;;;;3.33;3.05;;;;;;;-145.94;26.05;74655.72;5114076;28;20169;-67
2023/07/08 11:26:34;;;;;;;3.67;3.58;;;;;;;-145.94;25.99;74651.63;5113912;28;20573;-67
2023/07/08 11:29:03;;;;;;;7.13;3.35;;;;;;;-145.94;25.75;74637.38;5113107;28;20185;-68
2023/07/08 11:31:32;;;;;;;3.10;2.85;;;;;;;-145.94;26.47;74631.25;5104344;28;20695;-68